AAL2439 KDFW-KOKC
Flight info
| Callsign | AAL2439 |
|---|---|
| Flight time | N/A |
| Altitude | 20000 |
| Route | BLECO8 ZEMMA TSDEL3 |
| Aircraft | B738/M-SDE2E3FGHIRWXY/LB1 |
Departure
| Time | 2026-05-04 23:47 |
|---|---|
| Airport | Dallas Fort Worth International Airport (KDFW) |
Arrival
| Time | N/A |
|---|---|
| Airport | OKC Will Rogers World Airport (KOKC) |
| Time | Latitude | Longitude | Altitude | Speed | Heading |
|---|---|---|---|---|---|
| 2026-05-04 23:23 | 32.89479 | -97.03658 | 578 ft | 0 kts | 324° |
| 2026-05-04 23:32 | 32.89479 | -97.03657 | 578 ft | 0 kts | 324° |
| 2026-05-04 23:32 | 32.89475 | -97.03655 | 578 ft | 2 kts | 328° |
| 2026-05-04 23:32 | 32.89463 | -97.03645 | 578 ft | 2 kts | 323° |
| 2026-05-04 23:33 | 32.89455 | -97.03638 | 578 ft | 2 kts | 320° |
| 2026-05-04 23:33 | 32.89446 | -97.03624 | 578 ft | 2 kts | 291° |
| 2026-05-04 23:33 | 32.89443 | -97.03606 | 578 ft | 2 kts | 268° |
| 2026-05-04 23:33 | 32.89446 | -97.03589 | 578 ft | 2 kts | 243° |
| 2026-05-04 23:34 | 32.89455 | -97.03574 | 578 ft | 2 kts | 219° |
| 2026-05-04 23:34 | 32.89467 | -97.03566 | 578 ft | 0 kts | 198° |
| 2026-05-04 23:34 | 32.89468 | -97.03566 | 578 ft | 1 kts | 199° |
| 2026-05-04 23:34 | 32.89463 | -97.03578 | 578 ft | 3 kts | 248° |
| 2026-05-04 23:35 | 32.89442 | -97.03627 | 578 ft | 6 kts | 243° |
| 2026-05-04 23:35 | 32.89429 | -97.03658 | 578 ft | 1 kts | 244° |
| 2026-05-04 23:35 | 32.89426 | -97.03664 | 577 ft | 1 kts | 211° |
| 2026-05-04 23:35 | 32.89418 | -97.03660 | 577 ft | 1 kts | 133° |
| 2026-05-04 23:36 | 32.89417 | -97.03650 | 577 ft | 1 kts | 89° |
| 2026-05-04 23:36 | 32.89417 | -97.03647 | 577 ft | 0 kts | 89° |
| 2026-05-04 23:38 | 32.89419 | -97.03612 | 577 ft | 12 kts | 88° |
| 2026-05-04 23:38 | 32.89418 | -97.03501 | 577 ft | 11 kts | 91° |
| 2026-05-04 23:38 | 32.89417 | -97.03423 | 577 ft | 7 kts | 91° |
| 2026-05-04 23:38 | 32.89417 | -97.03372 | 576 ft | 4 kts | 91° |
| 2026-05-04 23:39 | 32.89426 | -97.03335 | 576 ft | 7 kts | 44° |
| 2026-05-04 23:39 | 32.89487 | -97.03318 | 575 ft | 8 kts | 1° |
| 2026-05-04 23:39 | 32.89531 | -97.03318 | 576 ft | 4 kts | 360° |
| 2026-05-04 23:39 | 32.89555 | -97.03319 | 577 ft | 4 kts | 359° |
| 2026-05-04 23:40 | 32.89629 | -97.03316 | 578 ft | 13 kts | 3° |
| 2026-05-04 23:40 | 32.89699 | -97.03316 | 579 ft | 10 kts | 359° |
| 2026-05-04 23:40 | 32.89771 | -97.03318 | 579 ft | 10 kts | 358° |
| 2026-05-04 23:40 | 32.89842 | -97.03320 | 579 ft | 10 kts | 358° |
| 2026-05-04 23:41 | 32.89909 | -97.03322 | 580 ft | 9 kts | 359° |
| 2026-05-04 23:41 | 32.89967 | -97.03323 | 581 ft | 7 kts | 359° |
| 2026-05-04 23:41 | 32.90019 | -97.03323 | 582 ft | 7 kts | 0° |
| 2026-05-04 23:41 | 32.90073 | -97.03322 | 581 ft | 8 kts | 2° |
| 2026-05-04 23:42 | 32.90163 | -97.03316 | 582 ft | 15 kts | 3° |
| 2026-05-04 23:42 | 32.90263 | -97.03313 | 583 ft | 13 kts | 360° |
| 2026-05-04 23:42 | 32.90357 | -97.03310 | 584 ft | 13 kts | 4° |
| 2026-05-04 23:42 | 32.90448 | -97.03308 | 584 ft | 13 kts | 1° |
| 2026-05-04 23:43 | 32.90540 | -97.03311 | 585 ft | 12 kts | 355° |
| 2026-05-04 23:43 | 32.90619 | -97.03313 | 587 ft | 10 kts | 1° |
| 2026-05-04 23:43 | 32.90693 | -97.03312 | 587 ft | 12 kts | 359° |
| 2026-05-04 23:43 | 32.90823 | -97.03313 | 585 ft | 20 kts | 359° |
| 2026-05-04 23:44 | 32.90969 | -97.03313 | 585 ft | 21 kts | 0° |
| 2026-05-04 23:44 | 32.91112 | -97.03276 | 581 ft | 21 kts | 359° |
| 2026-05-04 23:44 | 32.91266 | -97.03276 | 579 ft | 23 kts | 1° |
| 2026-05-04 23:44 | 32.91433 | -97.03273 | 576 ft | 24 kts | 359° |
| 2026-05-04 23:45 | 32.91554 | -97.03238 | 573 ft | 15 kts | 59° |
| 2026-05-04 23:45 | 32.91559 | -97.03127 | 572 ft | 9 kts | 91° |
| 2026-05-04 23:45 | 32.91559 | -97.03111 | 571 ft | 2 kts | 92° |
| 2026-05-04 23:45 | 32.91558 | -97.03078 | 571 ft | 7 kts | 92° |
| 2026-05-04 23:46 | 32.91510 | -97.02988 | 569 ft | 9 kts | 181° |
| 2026-05-04 23:46 | 32.91503 | -97.02988 | 569 ft | 8 kts | 175° |
| 2026-05-04 23:46 | 32.91058 | -97.02985 | 572 ft | 116 kts | 181° |
| 2026-05-04 23:46 | 32.89982 | -97.02972 | 867 ft | 178 kts | 178° |
| 2026-05-04 23:47 | 32.88793 | -97.02922 | 2056 ft | 185 kts | 181° |
| 2026-05-04 23:47 | 32.87461 | -97.02933 | 3086 ft | 202 kts | 182° |
| 2026-05-04 23:47 | 32.86002 | -97.02927 | 4085 ft | 221 kts | 182° |
| 2026-05-04 23:47 | 32.84430 | -97.02668 | 5001 ft | 247 kts | 168° |
| 2026-05-04 23:48 | 32.82782 | -97.01901 | 6026 ft | 265 kts | 162° |
| 2026-05-04 23:48 | 32.81087 | -97.00984 | 7124 ft | 276 kts | 162° |
| 2026-05-04 23:48 | 32.79372 | -96.99910 | 8310 ft | 287 kts | 152° |
| 2026-05-04 23:48 | 32.77896 | -96.98305 | 9438 ft | 302 kts | 129° |
| 2026-05-04 23:49 | 32.76927 | -96.96094 | 10570 ft | 311 kts | 113° |
| 2026-05-04 23:49 | 32.76353 | -96.93607 | 11565 ft | 320 kts | 94° |
| 2026-05-04 23:49 | 32.76401 | -96.90937 | 12404 ft | 332 kts | 79° |
| 2026-05-04 23:49 | 32.77074 | -96.88304 | 13247 ft | 339 kts | 60° |
| 2026-05-04 23:50 | 32.78355 | -96.85916 | 14064 ft | 347 kts | 45° |
| 2026-05-04 23:50 | 32.80064 | -96.83847 | 14822 ft | 356 kts | 35° |
| 2026-05-04 23:50 | 32.82049 | -96.82076 | 15553 ft | 365 kts | 25° |
| 2026-05-04 23:50 | 32.84412 | -96.80944 | 16266 ft | 366 kts | 6° |
| 2026-05-04 23:51 | 32.86923 | -96.80660 | 17017 ft | 369 kts | 355° |
| 2026-05-04 23:51 | 32.89505 | -96.80687 | 17848 ft | 376 kts | 352° |
| 2026-05-04 23:51 | 32.92145 | -96.80772 | 18773 ft | 382 kts | 352° |
| 2026-05-04 23:51 | 32.94791 | -96.80855 | 19619 ft | 385 kts | 351° |
| 2026-05-04 23:52 | 32.97471 | -96.81212 | 19965 ft | 384 kts | 343° |
| 2026-05-04 23:52 | 33.00033 | -96.82002 | 19993 ft | 375 kts | 335° |
| 2026-05-04 23:52 | 33.02403 | -96.83151 | 19995 ft | 369 kts | 329° |
| 2026-05-04 23:52 | 33.04715 | -96.84531 | 19986 ft | 371 kts | 327° |
| 2026-05-04 23:53 | 33.06968 | -96.85987 | 19953 ft | 369 kts | 326° |
| 2026-05-04 23:53 | 33.09214 | -96.87477 | 19793 ft | 365 kts | 326° |
| 2026-05-04 23:53 | 33.11449 | -96.88964 | 19614 ft | 367 kts | 326° |
| 2026-05-04 23:53 | 33.13656 | -96.90427 | 19564 ft | 358 kts | 326° |
| 2026-05-04 23:54 | 33.15828 | -96.91850 | 19796 ft | 360 kts | 326° |
| 2026-05-04 23:54 | 33.18064 | -96.93320 | 19796 ft | 371 kts | 326° |
| 2026-05-04 23:54 | 33.20332 | -96.94800 | 19791 ft | 368 kts | 326° |
| 2026-05-04 23:54 | 33.22575 | -96.96256 | 19790 ft | 368 kts | 326° |
| 2026-05-04 23:55 | 33.24826 | -96.97716 | 19788 ft | 370 kts | 326° |
| 2026-05-04 23:55 | 33.27084 | -96.99181 | 19790 ft | 370 kts | 326° |
| 2026-05-04 23:55 | 33.31592 | -97.02106 | 19778 ft | 370 kts | 326° |
| 2026-05-04 23:56 | 33.33862 | -97.03583 | 19779 ft | 370 kts | 326° |
| 2026-05-04 23:56 | 33.36123 | -97.05053 | 19771 ft | 370 kts | 327° |
| 2026-05-04 23:56 | 33.38378 | -97.06519 | 19776 ft | 370 kts | 326° |
| 2026-05-04 23:56 | 33.40671 | -97.08010 | 19770 ft | 371 kts | 327° |
| 2026-05-04 23:57 | 33.42967 | -97.09345 | 19767 ft | 373 kts | 332° |
| 2026-05-04 23:57 | 33.45498 | -97.10272 | 19773 ft | 383 kts | 343° |
| 2026-05-04 23:57 | 33.48163 | -97.10527 | 19769 ft | 391 kts | 354° |
| 2026-05-04 23:57 | 33.50925 | -97.10351 | 19764 ft | 395 kts | 358° |
| 2026-05-04 23:58 | 33.53635 | -97.10031 | 19761 ft | 394 kts | 359° |
| 2026-05-04 23:58 | 33.56371 | -97.09654 | 19769 ft | 397 kts | 360° |
| 2026-05-04 23:58 | 33.59149 | -97.09260 | 19760 ft | 398 kts | 0° |
| 2026-05-04 23:58 | 33.61870 | -97.08876 | 19758 ft | 395 kts | 360° |
| 2026-05-04 23:59 | 33.64620 | -97.08496 | 19765 ft | 396 kts | 360° |
| 2026-05-04 23:59 | 33.67341 | -97.08131 | 19762 ft | 395 kts | 359° |
| 2026-05-04 23:59 | 33.70116 | -97.07765 | 19753 ft | 396 kts | 360° |
| 2026-05-04 23:59 | 33.72829 | -97.07412 | 19754 ft | 395 kts | 359° |
| 2026-05-05 00:00 | 33.75587 | -97.07057 | 19753 ft | 398 kts | 359° |
| 2026-05-05 00:00 | 33.76487 | -97.06942 | 19750 ft | 397 kts | 359° |
| 2026-05-05 00:00 | 33.81052 | -97.06355 | 19743 ft | 396 kts | 359° |
| 2026-05-05 00:00 | 33.83825 | -97.06001 | 19738 ft | 397 kts | 360° |
| 2026-05-05 00:01 | 33.86552 | -97.05653 | 19721 ft | 396 kts | 360° |
| 2026-05-05 00:01 | 33.89323 | -97.05300 | 19724 ft | 397 kts | 360° |
| 2026-05-05 00:01 | 33.92064 | -97.04951 | 19720 ft | 397 kts | 360° |
| 2026-05-05 00:01 | 33.94806 | -97.04602 | 19723 ft | 396 kts | 360° |
| 2026-05-05 00:02 | 33.97534 | -97.04253 | 19706 ft | 395 kts | 360° |
| 2026-05-05 00:02 | 34.00282 | -97.03904 | 19712 ft | 398 kts | 0° |
| 2026-05-05 00:02 | 34.03044 | -97.03552 | 19714 ft | 395 kts | 360° |
| 2026-05-05 00:02 | 34.05794 | -97.03199 | 19727 ft | 396 kts | 360° |
| 2026-05-05 00:03 | 34.08536 | -97.02848 | 19730 ft | 394 kts | 359° |
| 2026-05-05 00:03 | 34.11260 | -97.02501 | 19734 ft | 397 kts | 360° |
| 2026-05-05 00:03 | 34.14019 | -97.02150 | 19732 ft | 394 kts | 360° |
| 2026-05-05 00:03 | 34.16730 | -97.01804 | 19739 ft | 397 kts | 359° |
| 2026-05-05 00:04 | 34.19496 | -97.01450 | 19735 ft | 394 kts | 359° |
| 2026-05-05 00:04 | 34.22204 | -97.01102 | 19733 ft | 393 kts | 359° |
| 2026-05-05 00:04 | 34.24972 | -97.00749 | 19732 ft | 396 kts | 360° |
| 2026-05-05 00:04 | 34.27688 | -97.00401 | 19736 ft | 394 kts | 359° |
| 2026-05-05 00:05 | 34.30419 | -97.00050 | 19735 ft | 393 kts | 359° |
| 2026-05-05 00:05 | 34.33148 | -96.99699 | 19731 ft | 393 kts | 360° |
| 2026-05-05 00:05 | 34.35812 | -96.99470 | 19728 ft | 371 kts | 354° |
| 2026-05-05 00:05 | 34.38302 | -96.99686 | 19733 ft | 351 kts | 343° |
| 2026-05-05 00:06 | 34.40617 | -97.00510 | 19741 ft | 349 kts | 333° |
| 2026-05-05 00:06 | 34.42809 | -97.01712 | 19735 ft | 345 kts | 329° |
| 2026-05-05 00:06 | 34.44966 | -97.03059 | 19729 ft | 344 kts | 327° |
| 2026-05-05 00:06 | 34.47072 | -97.04429 | 19714 ft | 345 kts | 327° |
| 2026-05-05 00:07 | 34.49173 | -97.05804 | 19710 ft | 343 kts | 327° |
| 2026-05-05 00:07 | 34.51269 | -97.07169 | 19706 ft | 344 kts | 327° |
| 2026-05-05 00:07 | 34.53381 | -97.08536 | 19707 ft | 344 kts | 327° |
| 2026-05-05 00:07 | 34.55504 | -97.09904 | 19706 ft | 345 kts | 327° |
| 2026-05-05 00:08 | 34.57619 | -97.11262 | 19710 ft | 344 kts | 327° |